Time;durP1;ratioP1;P1;durP2;ratioP2;P2;SDS_P1;SDS_P2;PMS_P1;PMS_P2;Temp;Humidity;BMP_temperature;BMP_pressure;BME280_temperature;BME280_humidity;BME280_pressure;Samples;Min_cycle;Max_cycle;Signal;HPM_P1;HPM_P2
2021/03/30 00:00:27;;;;;;;2.40;1.93;;;8.40;99.90;;;;;;4995278;28;20223;-84
2021/03/30 00:02:53;;;;;;;6.63;3.00;;;8.40;99.90;;;;;;5000307;28;20707;-86
2021/03/30 00:05:19;;;;;;;13.47;2.03;;;8.30;99.90;;;;;;4969804;28;20231;-85
2021/03/30 00:07:45;;;;;;;2.60;1.57;;;8.30;99.90;;;;;;5002754;28;20652;-86
2021/03/30 00:10:15;;;;;;;2.47;2.23;;;8.30;99.90;;;;;;4987986;28;20246;-84
2021/03/30 00:12:41;;;;;;;1.67;1.57;;;8.20;99.90;;;;;;4985989;28;20203;-86
2021/03/30 00:15:10;;;;;;;2.53;1.53;;;8.20;99.90;;;;;;4986738;28;20224;-87
2021/03/30 00:17:36;;;;;;;1.47;1.37;;;8.20;99.90;;;;;;5004339;28;20214;-85
2021/03/30 00:20:15;;;;;;;2.70;2.00;;;8.10;99.90;;;;;;4970983;28;20226;-85
2021/03/30 00:22:41;;;;;;;4.77;2.03;;;8.00;99.90;;;;;;4986736;28;20191;-86
2021/03/30 00:25:12;;;;;;;2.63;1.70;;;8.00;99.90;;;;;;4987530;28;20188;-85
2021/03/30 00:27:38;;;;;;;2.33;2.00;;;7.90;99.90;;;;;;5002124;28;20240;-85
2021/03/30 00:30:07;;;;;;;5.70;2.07;;;7.80;99.90;;;;;;4963721;28;20231;-87
2021/03/30 00:32:33;;;;;;;1.93;1.60;;;7.80;99.90;;;;;;4977992;28;20230;-85
2021/03/30 00:34:58;;;;;;;1.87;1.57;;;7.70;99.90;;;;;;4969483;28;21274;-85
2021/03/30 00:37:24;;;;;;;2.13;1.90;;;7.70;99.90;;;;;;4971477;28;20963;-86
2021/03/30 00:39:50;;;;;;;2.50;1.20;;;7.70;99.90;;;;;;4986064;28;20745;-85
2021/03/30 00:42:17;;;;;;;5.93;2.03;;;7.70;99.90;;;;;;4967722;28;20817;-86
2021/03/30 00:44:43;;;;;;;8.90;1.97;;;7.70;99.90;;;;;;5003594;28;20246;-86
2021/03/30 00:47:14;;;;;;;4.23;2.23;;;7.70;99.90;;;;;;5003986;28;20219;-85
2021/03/30 00:49:40;;;;;;;2.43;1.53;;;7.70;99.90;;;;;;4994126;28;20204;-85
2021/03/30 00:52:06;;;;;;;3.10;1.63;;;7.70;99.90;;;;;;4965448;28;20665;-86
2021/03/30 00:54:31;;;;;;;7.00;1.20;;;7.70;99.90;;;;;;4970205;28;20259;-85
2021/03/30 00:56:57;;;;;;;4.57;2.33;;;7.70;99.90;;;;;;4970058;28;20346;-86
2021/03/30 00:59:24;;;;;;;2.77;2.37;;;7.70;99.90;;;;;;4969839;28;20330;-86
2021/03/30 01:01:50;;;;;;;9.07;2.77;;;7.70;99.90;;;;;;4985761;28;20188;-85
2021/03/30 01:04:16;;;;;;;1.57;1.43;;;7.80;99.90;;;;;;4969940;28;20215;-86
2021/03/30 01:06:42;;;;;;;2.40;2.20;;;7.80;99.90;;;;;;4952302;28;21249;-87
2021/03/30 01:09:36;;;;;;;3.97;2.33;;;7.90;99.90;;;;;;4985409;28;20804;-86
2021/03/30 01:12:29;;;;;;;6.93;1.60;;;7.90;99.90;;;;;;5003382;28;20219;-86
2021/03/30 01:15:01;;;;;;;5.60;2.23;;;7.80;99.90;;;;;;5004399;28;20223;-85
2021/03/30 01:17:58;;;;;;;12.57;2.03;;;7.80;99.90;;;;;;5002024;28;20247;-86
2021/03/30 01:20:53;;;;;;;3.00;1.93;;;7.80;99.90;;;;;;5001969;28;20219;-87
2021/03/30 01:23:22;;;;;;;5.83;2.30;;;7.70;99.90;;;;;;5001649;28;20755;-85
2021/03/30 01:26:11;;;;;;;3.43;2.57;;;7.70;99.90;;;;;;5003674;28;20195;-84
2021/03/30 01:29:02;;;;;;;4.83;1.80;;;7.60;99.90;;;;;;5003378;28;20207;-83
2021/03/30 01:31:29;;;;;;;4.53;2.70;;;7.60;99.90;;;;;;4976073;28;20199;-85
2021/03/30 01:33:58;;;;;;;3.10;1.73;;;7.50;99.90;;;;;;4982835;28;20242;-84
2021/03/30 01:36:28;;;;;;;6.77;1.77;;;7.50;99.90;;;;;;5003519;28;20215;-83
2021/03/30 01:38:55;;;;;;;2.63;2.40;;;7.50;99.90;;;;;;4984711;28;20303;-83
2021/03/30 01:41:23;;;;;;;11.03;2.17;;;7.50;99.90;;;;;;4967000;28;20219;-83
2021/03/30 01:43:50;;;;;;;5.03;2.37;;;7.50;99.90;;;;;;5003800;28;20195;-85
2021/03/30 01:46:17;;;;;;;3.43;2.80;;;7.50;99.90;;;;;;5005886;28;20260;-85
2021/03/30 01:48:43;;;;;;;4.03;2.33;;;7.40;99.90;;;;;;4985540;28;20231;-83
2021/03/30 01:51:11;;;;;;;7.93;2.47;;;7.30;99.90;;;;;;4984606;28;20265;-83
2021/03/30 01:53:41;;;;;;;2.97;2.37;;;7.30;99.90;;;;;;5002470;28;20215;-84
2021/03/30 01:56:08;;;;;;;3.27;2.00;;;7.20;99.90;;;;;;4982734;28;20215;-87
2021/03/30 01:58:36;;;;;;;4.40;2.07;;;7.10;99.90;;;;;;4979531;28;20195;-84
2021/03/30 02:01:02;;;;;;;13.93;2.57;;;7.10;99.90;;;;;;4959694;28;20188;-86
2021/03/30 02:03:27;;;;;;;3.50;2.47;;;7.00;99.90;;;;;;4967428;28;20288;-83
2021/03/30 02:05:56;;;;;;;3.47;1.83;;;7.00;99.90;;;;;;4951898;28;20702;-83
2021/03/30 02:08:26;;;;;;;4.43;2.80;;;7.00;99.90;;;;;;4999645;28;20578;-84
2021/03/30 02:10:54;;;;;;;6.07;2.07;;;7.00;99.90;;;;;;4984963;28;20854;-84
2021/03/30 02:13:27;;;;;;;3.00;2.70;;;7.10;99.90;;;;;;4969982;28;20195;-85
2021/03/30 02:16:18;;;;;;;6.80;3.30;;;7.00;99.90;;;;;;4980156;28;20219;-84
2021/03/30 02:18:51;;;;;;;3.93;2.33;;;7.00;99.90;;;;;;5001961;28;20237;-85
2021/03/30 02:21:28;;;;;;;4.07;2.20;;;7.00;99.90;;;;;;4984051;28;20269;-85
2021/03/30 02:23:56;;;;;;;2.30;1.67;;;7.00;99.90;;;;;;5002369;28;21901;-85
2021/03/30 02:26:23;;;;;;;5.67;2.60;;;7.00;99.90;;;;;;5002412;28;20231;-85
2021/03/30 02:28:54;;;;;;;2.37;2.17;;;7.00;99.90;;;;;;4968292;28;20646;-86
2021/03/30 02:31:25;;;;;;;4.33;2.53;;;6.90;99.90;;;;;;5003421;28;20696;-85
2021/03/30 02:33:53;;;;;;;28.43;3.27;;;6.90;99.90;;;;;;4984450;28;20246;-85
2021/03/30 02:36:20;;;;;;;3.00;1.90;;;6.90;99.90;;;;;;4999932;28;20816;-85
2021/03/30 02:38:47;;;;;;;3.87;1.80;;;6.80;99.90;;;;;;4968637;28;20684;-85
2021/03/30 02:41:15;;;;;;;6.30;1.47;;;6.80;99.90;;;;;;5000599;28;20218;-85
2021/03/30 02:43:42;;;;;;;2.17;1.47;;;6.80;99.90;;;;;;5000188;28;20198;-85
2021/03/30 02:46:08;;;;;;;14.60;2.23;;;6.80;99.90;;;;;;4978408;28;20190;-85
2021/03/30 02:48:37;;;;;;;7.57;1.93;;;6.80;99.90;;;;;;4951432;28;20215;-85
2021/03/30 02:51:05;;;;;;;2.47;2.27;;;6.80;99.90;;;;;;4984033;28;20215;-85
2021/03/30 02:53:33;;;;;;;4.60;2.97;;;6.70;99.90;;;;;;4983250;28;20227;-83
2021/03/30 02:56:02;;;;;;;8.37;1.67;;;6.70;99.90;;;;;;5002460;28;20249;-83
2021/03/30 02:58:28;;;;;;;2.93;2.03;;;6.70;99.90;;;;;;4979040;28;20967;-83
2021/03/30 03:00:54;;;;;;;3.07;2.70;;;6.70;99.90;;;;;;4983434;28;20215;-85
2021/03/30 03:03:22;;;;;;;3.03;2.67;;;6.70;99.90;;;;;;4963962;28;20215;-83
2021/03/30 03:05:48;;;;;;;3.63;2.73;;;6.70;99.90;;;;;;4976750;28;20219;-83
2021/03/30 03:08:15;;;;;;;2.20;1.87;;;6.70;99.90;;;;;;4951207;28;20226;-84
2021/03/30 03:10:42;;;;;;;5.67;3.03;;;6.70;99.90;;;;;;5000149;28;20198;-84
2021/03/30 03:13:12;;;;;;;1.53;1.43;;;6.70;99.90;;;;;;4985009;28;20180;-83
2021/03/30 03:15:39;;;;;;;4.83;2.60;;;6.80;99.90;;;;;;5000492;28;20824;-83
2021/03/30 03:18:06;;;;;;;11.13;2.23;;;6.80;99.90;;;;;;4967600;28;20394;-84
2021/03/30 03:20:32;;;;;;;5.63;3.43;;;6.80;99.90;;;;;;4967750;28;20215;-83
2021/03/30 03:23:00;;;;;;;3.77;2.33;;;6.80;99.90;;;;;;4983327;28;20302;-84
2021/03/30 03:25:25;;;;;;;1.93;1.70;;;6.90;99.90;;;;;;4968364;28;20326;-83
2021/03/30 03:27:52;;;;;;;5.13;3.00;;;6.90;99.90;;;;;;4983181;28;20242;-84
2021/03/30 03:30:18;;;;;;;6.47;3.27;;;7.00;99.90;;;;;;4950352;28;20219;-83
2021/03/30 03:32:44;;;;;;;8.97;2.03;;;7.10;99.90;;;;;;4987162;28;20215;-84
2021/03/30 03:35:13;;;;;;;2.17;1.40;;;7.10;99.90;;;;;;5005107;28;20223;-85
2021/03/30 03:37:47;;;;;;;5.53;1.50;;;7.20;99.90;;;;;;5003497;28;20187;-84
2021/03/30 03:40:14;;;;;;;5.43;2.00;;;7.20;99.90;;;;;;4978793;28;20196;-84
2021/03/30 03:42:41;;;;;;;2.67;2.13;;;7.20;99.90;;;;;;4986935;28;20226;-84
2021/03/30 03:45:08;;;;;;;7.27;2.67;;;7.10;99.90;;;;;;5005324;28;21348;-83
2021/03/30 03:47:34;;;;;;;4.73;2.73;;;7.10;99.90;;;;;;4987114;28;20211;-85
2021/03/30 03:50:03;;;;;;;1.87;1.73;;;7.20;99.90;;;;;;4953876;28;20238;-83
2021/03/30 03:52:33;;;;;;;2.40;1.57;;;7.10;99.90;;;;;;4989301;28;20313;-84
2021/03/30 03:55:00;;;;;;;3.07;2.33;;;7.10;99.90;;;;;;5006085;28;20211;-83
2021/03/30 03:57:40;;;;;;;3.37;2.77;;;7.00;99.90;;;;;;4987032;28;20432;-83
2021/03/30 04:00:07;;;;;;;8.30;2.53;;;6.90;99.90;;;;;;4987485;28;20277;-83
2021/03/30 04:02:42;;;;;;;9.30;2.97;;;6.90;99.90;;;;;;4987097;28;20222;-83
2021/03/30 04:05:12;;;;;;;4.73;1.83;;;6.80;99.90;;;;;;5005923;28;20218;-84
2021/03/30 04:07:44;;;;;;;3.10;2.80;;;6.80;99.90;;;;;;5004159;28;20285;-85
2021/03/30 04:10:11;;;;;;;6.23;2.47;;;6.70;99.90;;;;;;5007173;28;20203;-84
2021/03/30 04:12:40;;;;;;;4.03;2.70;;;6.70;99.90;;;;;;4968946;28;20233;-85
2021/03/30 04:15:07;;;;;;;3.17;2.87;;;6.60;99.90;;;;;;4983115;28;20302;-83
2021/03/30 04:17:33;;;;;;;4.43;3.07;;;6.60;99.90;;;;;;4965548;28;20298;-87
2021/03/30 04:20:03;;;;;;;2.77;2.57;;;6.50;99.90;;;;;;4984691;28;20219;-84
2021/03/30 04:22:29;;;;;;;2.80;2.20;;;6.40;99.90;;;;;;4986572;28;20246;-83
2021/03/30 04:24:55;;;;;;;6.07;2.90;;;6.30;99.90;;;;;;4981398;28;20234;-85
2021/03/30 04:27:20;;;;;;;2.17;2.07;;;6.20;99.90;;;;;;4969113;28;20238;-85
2021/03/30 04:29:46;;;;;;;5.40;2.23;;;6.20;99.90;;;;;;4986641;28;21071;-86
2021/03/30 04:32:12;;;;;;;2.43;2.23;;;6.10;99.90;;;;;;4985925;28;20664;-84
2021/03/30 04:34:37;;;;;;;5.77;1.80;;;6.10;99.90;;;;;;4968333;28;20191;-83
2021/03/30 04:37:04;;;;;;;4.57;2.10;;;6.10;99.90;;;;;;4971093;28;20803;-84
2021/03/30 04:39:30;;;;;;;3.40;2.30;;;6.00;99.90;;;;;;4986629;28;20611;-83
2021/03/30 04:41:56;;;;;;;8.73;3.50;;;6.00;99.90;;;;;;4983717;28;21031;-85
2021/03/30 04:44:22;;;;;;;2.50;1.20;;;6.00;99.90;;;;;;4986359;28;20211;-87
2021/03/30 04:46:47;;;;;;;8.90;2.60;;;6.00;99.90;;;;;;4964855;28;20184;-85
2021/03/30 04:49:13;;;;;;;16.53;10.07;;;6.00;99.90;;;;;;4968991;28;20199;-85
2021/03/30 04:51:39;;;;;;;4.33;3.60;;;6.00;99.90;;;;;;4985430;28;21068;-85
2021/03/30 04:54:05;;;;;;;3.73;2.77;;;6.00;99.90;;;;;;4952145;28;21038;-86
2021/03/30 04:56:31;;;;;;;3.37;3.03;;;6.00;99.90;;;;;;4952645;28;20228;-85
2021/03/30 04:58:56;;;;;;;3.97;3.10;;;6.00;99.90;;;;;;4969122;28;20223;-84
2021/03/30 05:01:22;;;;;;;3.33;3.03;;;5.90;99.90;;;;;;4971232;28;20270;-84
2021/03/30 05:03:48;;;;;;;4.57;3.83;;;5.90;99.90;;;;;;4969614;28;20670;-84
2021/03/30 05:06:13;;;;;;;4.07;2.87;;;5.90;99.90;;;;;;4976928;28;20219;-86
2021/03/30 05:08:39;;;;;;;4.30;3.90;;;5.90;99.90;;;;;;4985792;28;20227;-85
2021/03/30 05:11:05;;;;;;;6.23;3.57;;;5.90;99.90;;;;;;4969845;28;20219;-86
2021/03/30 05:13:31;;;;;;;7.33;3.57;;;5.80;99.90;;;;;;4997848;28;20195;-86
2021/03/30 05:15:57;;;;;;;9.23;3.77;;;5.90;99.90;;;;;;4985008;28;20728;-85
2021/03/30 05:18:22;;;;;;;4.97;3.67;;;5.80;99.90;;;;;;4984943;28;20219;-86
2021/03/30 05:20:48;;;;;;;4.40;4.10;;;5.80;99.90;;;;;;4949957;28;20977;-87
2021/03/30 05:23:14;;;;;;;7.93;3.23;;;5.80;99.90;;;;;;4968868;28;20219;-85
2021/03/30 05:25:40;;;;;;;2.13;2.03;;;5.90;99.90;;;;;;4984772;28;20199;-85
2021/03/30 05:28:06;;;;;;;1.53;1.43;;;6.00;99.90;;;;;;4969415;28;20207;-86
2021/03/30 05:30:32;;;;;;;3.23;3.03;;;6.10;99.90;;;;;;4967975;28;21047;-86
2021/03/30 05:32:58;;;;;;;7.90;3.37;;;6.30;99.90;;;;;;4985429;28;20224;-86
2021/03/30 05:35:23;;;;;;;3.37;2.53;;;6.50;99.90;;;;;;5001251;28;20223;-85
2021/03/30 05:37:49;;;;;;;7.93;4.70;;;6.70;99.90;;;;;;4978782;28;20278;-86
2021/03/30 05:40:17;;;;;;;4.23;2.57;;;6.90;99.90;;;;;;4985174;28;20489;-87
2021/03/30 05:42:43;;;;;;;5.13;3.63;;;7.50;99.90;;;;;;5003522;28;20211;-86
2021/03/30 05:45:11;;;;;;;14.03;3.57;;;8.10;99.90;;;;;;4984571;28;20227;-86
2021/03/30 05:47:37;;;;;;;4.50;4.03;;;9.00;99.90;;;;;;4995004;28;20277;-87
2021/03/30 05:50:13;;;;;;;7.63;3.13;;;10.10;99.90;;;;;;4993390;28;20759;-84
2021/03/30 05:52:53;;;;;;;4.83;3.07;;;10.90;99.90;;;;;;4985103;28;20183;-86
2021/03/30 05:55:30;;;;;;;2.47;2.37;;;10.80;99.90;;;;;;4971254;28;20175;-85
2021/03/30 05:57:58;;;;;;;3.03;2.83;;;11.20;99.90;;;;;;4984581;28;20982;-85
2021/03/30 06:00:42;;;;;;;4.27;2.73;;;11.20;99.90;;;;;;5000548;28;21076;-86
2021/03/30 06:03:12;;;;;;;3.23;2.77;;;11.80;99.90;;;;;;4984775;28;20221;-84
2021/03/30 06:05:39;;;;;;;7.07;2.67;;;12.30;99.90;;;;;;4980418;28;20223;-85
2021/03/30 06:08:05;;;;;;;9.10;2.33;;;12.60;99.90;;;;;;4966644;28;20222;-85
2021/03/30 06:10:33;;;;;;;6.60;4.10;;;12.70;99.90;;;;;;4952874;28;20288;-86
2021/03/30 06:13:01;;;;;;;5.00;4.03;;;12.10;99.90;;;;;;4984812;28;20297;-87
2021/03/30 06:15:29;;;;;;;7.23;3.67;;;11.70;99.90;;;;;;4983058;28;20219;-86
2021/03/30 06:17:56;;;;;;;7.70;3.63;;;11.80;99.90;;;;;;4984018;28;20566;-86
2021/03/30 06:20:30;;;;;;;5.20;2.93;;;13.00;99.90;;;;;;4967391;28;20313;-86
2021/03/30 06:23:02;;;;;;;5.83;3.07;;;13.00;99.90;;;;;;4984128;28;20219;-86
2021/03/30 06:25:41;;;;;;;4.00;3.10;;;12.30;99.90;;;;;;4985127;28;20611;-86
2021/03/30 06:28:11;;;;;;;6.27;3.60;;;11.70;99.90;;;;;;5000744;28;20261;-87
2021/03/30 06:30:56;;;;;;;6.00;3.53;;;11.20;99.90;;;;;;4978412;28;20306;-85
2021/03/30 06:33:23;;;;;;;9.97;3.63;;;11.40;99.90;;;;;;4992714;28;20305;-86
2021/03/30 06:35:49;;;;;;;6.57;3.70;;;11.50;99.90;;;;;;4984383;28;20229;-88
2021/03/30 06:38:16;;;;;;;6.67;3.17;;;11.70;99.90;;;;;;5004544;28;20223;-90
2021/03/30 06:40:44;;;;;;;5.57;3.67;;;11.80;99.90;;;;;;4970295;28;20632;-89
2021/03/30 06:46:06;;;;;;;4.23;3.00;;;13.30;99.90;;;;;;5003934;28;20310;-87
2021/03/30 06:48:33;;;;;;;5.83;3.13;;;14.90;99.90;;;;;;4983787;28;20235;-88
2021/03/30 06:51:21;;;;;;;5.77;3.93;;;15.50;99.90;;;;;;4981522;28;20610;-87
2021/03/30 06:53:47;;;;;;;3.37;3.07;;;16.40;99.90;;;;;;4965811;28;20223;-88
2021/03/30 06:56:13;;;;;;;5.00;3.67;;;17.20;99.90;;;;;;4965643;28;20281;-89
2021/03/30 06:58:59;;;;;;;3.87;2.87;;;18.00;99.90;;;;;;4965475;28;20205;-88
2021/03/30 07:01:26;;;;;;;6.33;2.90;;;17.10;99.90;;;;;;4984825;28;20265;-87
2021/03/30 07:03:54;;;;;;;3.80;3.10;;;16.90;99.90;;;;;;4984492;28;20223;-87
2021/03/30 07:06:21;;;;;;;6.17;2.33;;;18.60;99.90;;;;;;4986619;28;20226;-90
2021/03/30 07:08:47;;;;;;;5.90;3.20;;;18.30;99.90;;;;;;4987843;28;20230;-89
2021/03/30 07:11:18;;;;;;;8.53;3.60;;;17.80;99.90;;;;;;4987357;28;20223;-89
2021/03/30 07:13:44;;;;;;;5.13;3.27;;;16.60;99.90;;;;;;4963831;28;20214;-89
2021/03/30 07:16:22;;;;;;;11.60;3.70;;;16.40;99.90;;;;;;5007756;28;21029;-90
2021/03/30 07:18:50;;;;;;;5.37;3.23;;;17.90;99.90;;;;;;4987488;28;20235;-89
2021/03/30 07:21:41;;;;;;;8.03;3.57;;;19.20;99.90;;;;;;4988071;28;20207;-90
2021/03/30 07:24:14;;;;;;;5.60;3.60;;;20.40;99.90;;;;;;5003288;28;20261;-88
2021/03/30 07:27:01;;;;;;;7.77;2.93;;;21.40;99.90;;;;;;4985895;28;20239;-88
2021/03/30 07:29:37;;;;;;;8.17;3.10;;;21.40;99.90;;;;;;5003998;28;20235;-88
2021/03/30 07:32:07;;;;;;;7.93;3.60;;;21.70;99.90;;;;;;4979585;28;20218;-88
2021/03/30 07:34:49;;;;;;;9.07;3.97;;;20.80;99.90;;;;;;4989105;28;20239;-88
2021/03/30 07:37:20;;;;;;;6.70;3.80;;;19.90;99.90;;;;;;4988745;28;20239;-90
2021/03/30 07:39:50;;;;;;;5.20;3.50;;;19.80;99.90;;;;;;4988243;28;20239;-91
2021/03/30 07:42:16;;;;;;;7.87;3.27;;;19.50;99.90;;;;;;4985379;28;20211;-89
2021/03/30 07:44:46;;;;;;;13.10;4.10;;;20.50;99.90;;;;;;4956014;28;20220;-89
2021/03/30 07:47:12;;;;;;;6.60;3.47;;;19.80;99.90;;;;;;4987440;28;20223;-89
2021/03/30 07:49:45;;;;;;;8.40;4.03;;;21.00;99.90;;;;;;4969821;28;20219;-90
2021/03/30 07:52:21;;;;;;;6.00;3.17;;;21.70;99.90;;;;;;4989246;28;20257;-90
2021/03/30 07:55:27;;;;;;;11.07;3.53;;;22.40;99.90;;;;;;4986381;28;20227;-89
2021/03/30 07:57:56;;;;;;;7.27;3.57;;;22.80;99.90;;;;;;4927189;28;20253;-88
2021/03/30 08:00:31;;;;;;;7.23;3.77;;;22.80;99.90;;;;;;4937003;28;20249;-91
2021/03/30 08:03:08;;;;;;;12.37;4.30;;;21.40;99.90;;;;;;4974831;28;20246;-90
2021/03/30 08:05:34;;;;;;;5.40;3.33;;;21.00;99.90;;;;;;5003124;28;20215;-88
2021/03/30 08:08:00;;;;;;;9.90;4.60;;;21.70;99.90;;;;;;5005118;28;20754;-88
2021/03/30 08:10:36;;;;;;;4.40;3.63;;;21.60;99.90;;;;;;4955982;28;20684;-89
2021/03/30 08:13:25;;;;;;;7.00;3.73;;;22.00;99.90;;;;;;4987165;28;20746;-88
2021/03/30 08:16:08;;;;;;;5.83;3.70;;;21.70;99.90;;;;;;5005160;28;20307;-89
2021/03/30 08:18:40;;;;;;;9.20;4.03;;;21.30;99.90;;;;;;4985763;28;20229;-89
2021/03/30 08:21:17;;;;;;;11.90;4.00;;;21.40;99.90;;;;;;4984392;28;20243;-89
2021/03/30 08:23:52;;;;;;;9.17;3.77;;;21.60;99.90;;;;;;4986791;28;20604;-89
2021/03/30 08:26:28;;;;;;;10.43;4.37;;;20.60;99.90;;;;;;4996309;28;20227;-88
2021/03/30 08:29:13;;;;;;;8.60;3.67;;;19.90;99.90;;;;;;5004678;28;20243;-89
2021/03/30 08:31:43;;;;;;;8.17;3.17;;;20.00;99.90;;;;;;4979696;28;20249;-91
2021/03/30 08:34:14;;;;;;;7.50;3.70;;;19.50;99.90;;;;;;4998009;28;20191;-90
2021/03/30 08:36:47;;;;;;;7.53;4.57;;;18.80;99.90;;;;;;4987154;28;20226;-89
2021/03/30 08:39:18;;;;;;;7.80;3.97;;;19.80;99.90;;;;;;5004334;28;20298;-89
2021/03/30 08:41:47;;;;;;;8.13;4.23;;;20.80;99.90;;;;;;5000885;28;20226;-88
2021/03/30 08:44:17;;;;;;;6.73;3.97;;;21.00;99.90;;;;;;4994573;28;20223;-88
2021/03/30 08:46:46;;;;;;;8.43;4.27;;;21.90;99.90;;;;;;5001575;28;20188;-89
2021/03/30 08:49:40;;;;;;;10.97;4.67;;;22.50;99.90;;;;;;4989176;28;20207;-89
2021/03/30 08:52:10;;;;;;;6.37;4.00;;;22.00;99.90;;;;;;5002871;28;20254;-90
2021/03/30 08:54:53;;;;;;;11.57;3.77;;;22.10;99.90;;;;;;5004017;28;20281;-89
2021/03/30 08:57:31;;;;;;;8.03;4.67;;;22.00;99.90;;;;;;4986164;28;20696;-90
2021/03/30 09:00:00;;;;;;;10.60;5.17;;;23.00;99.90;;;;;;4985375;28;20227;-89
2021/03/30 09:02:27;;;;;;;8.33;4.07;;;23.90;99.90;;;;;;4984615;28;20215;-90
2021/03/30 09:04:54;;;;;;;8.80;4.43;;;22.10;99.90;;;;;;4967628;28;20195;-90
2021/03/30 09:07:20;;;;;;;12.23;4.77;;;22.50;99.90;;;;;;4986856;28;20195;-89
2021/03/30 09:09:47;;;;;;;10.43;4.70;;;22.20;99.90;;;;;;4968708;28;20246;-88
2021/03/30 09:12:19;;;;;;;7.63;4.43;;;22.20;99.90;;;;;;4985579;28;20215;-89
2021/03/30 09:14:46;;;;;;;6.47;4.00;;;21.70;99.90;;;;;;4975629;28;20219;-89
2021/03/30 09:17:17;;;;;;;7.17;4.17;;;21.60;99.90;;;;;;4965285;28;20219;-91
2021/03/30 09:19:47;;;;;;;6.10;3.50;;;21.00;99.90;;;;;;4984447;28;20430;-89
2021/03/30 09:22:37;;;;;;;14.87;4.30;;;20.60;99.90;;;;;;4985816;28;20195;-89
2021/03/30 09:27:45;;;;;;;10.43;4.27;;;21.50;99.90;;;;;;4972761;28;20241;-89
2021/03/30 09:30:15;;;;;;;10.67;4.23;;;21.90;99.90;;;;;;4963718;28;21006;-90
2021/03/30 09:32:43;;;;;;;11.20;4.63;;;22.30;99.90;;;;;;4998681;28;20314;-89
2021/03/30 09:35:13;;;;;;;6.77;4.83;;;22.10;99.90;;;;;;4964876;28;20219;-89
2021/03/30 09:37:44;;;;;;;6.80;4.43;;;22.60;99.90;;;;;;4981464;28;20238;-90
2021/03/30 09:40:14;;;;;;;6.90;4.27;;;22.30;99.90;;;;;;4987791;28;20637;-90
2021/03/30 09:42:41;;;;;;;9.00;4.80;;;22.20;99.90;;;;;;4982355;28;20215;-89
2021/03/30 09:45:09;;;;;;;7.13;4.50;;;22.80;99.90;;;;;;4984303;28;20211;-90
2021/03/30 09:47:36;;;;;;;7.30;4.23;;;22.80;99.90;;;;;;4985364;28;20218;-92
2021/03/30 09:50:03;;;;;;;7.67;4.70;;;21.20;99.90;;;;;;4985659;28;20292;-90
2021/03/30 09:52:33;;;;;;;4.40;3.77;;;21.20;99.90;;;;;;4998939;28;20183;-89
2021/03/30 09:54:59;;;;;;;10.03;5.23;;;20.40;99.90;;;;;;5002446;28;20282;-89
2021/03/30 09:57:29;;;;;;;8.37;4.77;;;20.90;99.90;;;;;;4976429;28;20219;-89
2021/03/30 09:59:56;;;;;;;14.77;4.10;;;22.00;99.90;;;;;;4992726;28;20222;-90
2021/03/30 10:02:28;;;;;;;7.03;3.30;;;23.60;99.90;;;;;;5000664;28;20223;-89
2021/03/30 10:04:54;;;;;;;13.50;4.80;;;23.30;99.90;;;;;;4981489;28;20677;-90
2021/03/30 10:07:21;;;;;;;7.33;4.30;;;23.00;99.90;;;;;;4987457;28;20194;-89
2021/03/30 10:10:01;;;;;;;6.80;4.73;;;23.20;99.90;;;;;;4984339;28;20242;-89
2021/03/30 10:12:31;;;;;;;7.33;4.60;;;23.10;99.90;;;;;;4930379;28;20267;-88
2021/03/30 10:14:58;;;;;;;9.27;4.78;;;24.00;99.90;;;;;;4981315;28;20309;-89
2021/03/30 10:17:25;;;;;;;8.07;4.47;;;23.10;99.90;;;;;;4963341;28;20238;-90
2021/03/30 10:19:53;;;;;;;4.97;3.97;;;21.80;99.90;;;;;;4983811;28;20680;-89
2021/03/30 10:22:31;;;;;;;5.60;4.25;;;22.60;99.90;;;;;;4985196;28;20191;-89
2021/03/30 10:25:11;;;;;;;6.60;4.63;;;22.90;99.90;;;;;;4985648;28;20726;-89
2021/03/30 10:27:47;;;;;;;7.93;4.63;;;23.30;99.90;;;;;;4993128;28;20243;-89
2021/03/30 10:30:13;;;;;;;8.18;4.57;;;23.80;99.90;;;;;;4991714;28;20341;-89
2021/03/30 10:32:54;;;;;;;9.40;4.00;;;24.20;99.90;;;;;;5002000;28;20272;-90
2021/03/30 10:35:20;;;;;;;7.40;4.37;;;24.00;99.90;;;;;;4983937;28;20226;-89
2021/03/30 10:37:47;;;;;;;8.38;5.05;;;24.20;99.90;;;;;;4984034;28;20191;-90
2021/03/30 10:40:14;;;;;;;6.38;4.35;;;23.60;99.90;;;;;;4999624;28;20218;-89
2021/03/30 10:42:40;;;;;;;6.38;3.85;;;23.00;99.90;;;;;;4984206;28;20222;-89
2021/03/30 10:45:12;;;;;;;8.10;4.75;;;23.50;99.90;;;;;;4984935;28;20223;-88
2021/03/30 10:47:40;;;;;;;5.13;3.92;;;24.80;99.90;;;;;;4996320;28;20338;-88
2021/03/30 10:50:13;;;;;;;14.07;5.18;;;24.40;99.90;;;;;;4983544;28;20235;-90
2021/03/30 10:52:40;;;;;;;13.45;5.13;;;23.50;99.90;;;;;;4999559;28;20190;-91
2021/03/30 10:55:13;;;;;;;8.35;4.90;;;24.10;99.90;;;;;;4985815;28;20679;-90
2021/03/30 10:57:43;;;;;;;7.82;4.47;;;24.60;99.90;;;;;;4999665;28;20215;-89
2021/03/30 11:00:10;;;;;;;6.88;5.03;;;23.80;99.90;;;;;;4982903;28;20573;-89
2021/03/30 11:02:37;;;;;;;7.75;4.10;;;23.00;99.90;;;;;;4999836;28;20257;-89
2021/03/30 11:05:04;;;;;;;8.02;4.32;;;22.70;99.90;;;;;;4983044;28;20590;-87
2021/03/30 11:07:30;;;;;;;4.22;3.83;;;22.50;99.90;;;;;;4985142;28;20656;-88
2021/03/30 11:09:56;;;;;;;6.50;4.15;;;22.50;99.90;;;;;;5001323;28;20242;-89
2021/03/30 11:12:22;;;;;;;7.05;4.05;;;22.20;99.90;;;;;;4999251;28;20217;-88
2021/03/30 11:14:50;;;;;;;7.10;4.45;;;21.60;99.90;;;;;;4967732;28;20611;-91
2021/03/30 11:17:16;;;;;;;6.03;4.00;;;22.20;99.90;;;;;;4983637;28;20219;-90
2021/03/30 11:19:42;;;;;;;7.45;4.70;;;22.10;99.90;;;;;;4966753;28;20653;-91
2021/03/30 11:22:09;;;;;;;7.90;4.50;;;22.40;99.90;;;;;;4985895;28;21028;-90
2021/03/30 11:24:39;;;;;;;11.70;4.95;;;22.50;99.90;;;;;;4966825;28;20220;-87
2021/03/30 11:27:06;;;;;;;12.23;4.85;;;22.50;99.90;;;;;;4978193;28;20757;-89
2021/03/30 11:34:54;;;;;;;8.88;4.35;;;23.40;99.90;;;;;;4975337;28;20215;-90
2021/03/30 11:39:54;;;;;;;11.40;4.13;;;23.10;99.90;;;;;;4968477;28;20225;-89
2021/03/30 11:42:20;;;;;;;6.70;4.20;;;23.00;99.90;;;;;;4970287;28;20231;-89
2021/03/30 11:44:46;;;;;;;8.48;4.93;;;22.60;99.90;;;;;;4970821;28;20220;-89
2021/03/30 11:47:12;;;;;;;7.13;4.32;;;22.50;99.90;;;;;;4966143;28;20627;-89
2021/03/30 11:49:39;;;;;;;9.38;4.30;;;21.90;99.90;;;;;;4963417;28;20221;-91
2021/03/30 11:52:06;;;;;;;7.82;3.88;;;21.40;99.90;;;;;;4989350;28;20271;-89
2021/03/30 11:54:32;;;;;;;7.03;4.73;;;21.50;99.90;;;;;;4986504;28;20224;-91
2021/03/30 11:56:59;;;;;;;6.03;3.37;;;21.80;99.90;;;;;;4972539;28;20798;-89
2021/03/30 11:59:28;;;;;;;7.63;4.30;;;21.60;99.90;;;;;;4975292;28;20299;-90
2021/03/30 12:01:55;;;;;;;8.70;3.57;;;21.70;99.90;;;;;;4988626;28;20319;-90
2021/03/30 12:04:21;;;;;;;8.37;4.17;;;21.30;99.90;;;;;;4974837;28;20219;-89
2021/03/30 12:06:53;;;;;;;8.73;4.00;;;21.40;99.90;;;;;;4972730;28;20227;-89
2021/03/30 12:09:19;;;;;;;6.75;3.70;;;21.50;99.90;;;;;;4988165;28;20233;-90
2021/03/30 12:11:46;;;;;;;7.80;4.00;;;21.60;99.90;;;;;;4958236;28;21094;-91
2021/03/30 12:14:15;;;;;;;8.13;3.70;;;21.60;99.90;;;;;;4955696;28;21069;-92
2021/03/30 12:16:43;;;;;;;8.53;4.03;;;21.20;99.90;;;;;;4973034;28;20229;-89
2021/03/30 12:19:09;;;;;;;12.20;4.13;;;21.00;99.90;;;;;;4960056;28;20299;-89
2021/03/30 12:21:36;;;;;;;6.13;3.77;;;20.90;99.90;;;;;;4962070;28;21026;-90
2021/03/30 12:24:01;;;;;;;5.57;4.40;;;20.80;99.90;;;;;;4988983;28;20258;-89
2021/03/30 12:26:27;;;;;;;9.03;4.47;;;20.80;99.90;;;;;;4956923;28;20216;-89
2021/03/30 12:28:53;;;;;;;4.53;3.37;;;21.00;99.90;;;;;;4953469;28;20235;-89
2021/03/30 12:31:19;;;;;;;5.63;3.90;;;21.00;99.90;;;;;;4954758;28;20598;-89
2021/03/30 12:33:45;;;;;;;7.17;2.93;;;20.80;99.90;;;;;;4970604;28;20231;-89
2021/03/30 12:36:11;;;;;;;6.47;3.90;;;20.50;99.90;;;;;;4954453;28;20267;-89
2021/03/30 12:38:36;;;;;;;7.17;3.53;;;20.40;99.90;;;;;;4986202;28;20231;-89
2021/03/30 12:41:02;;;;;;;4.30;2.93;;;20.30;99.90;;;;;;4983860;28;20211;-88
2021/03/30 12:43:28;;;;;;;5.33;3.67;;;20.30;99.90;;;;;;4987717;28;20652;-89
2021/03/30 12:45:54;;;;;;;7.90;3.27;;;20.30;99.90;;;;;;4969171;28;21061;-91
2021/03/30 12:48:20;;;;;;;6.40;3.50;;;20.00;99.90;;;;;;4984845;28;20258;-89
2021/03/30 12:50:46;;;;;;;5.83;3.33;;;19.80;99.90;;;;;;4985480;28;20239;-89
2021/03/30 12:53:12;;;;;;;5.43;3.73;;;19.80;99.90;;;;;;4953407;28;20596;-89
2021/03/30 12:55:37;;;;;;;6.97;4.13;;;19.90;99.90;;;;;;4979678;28;20230;-90
2021/03/30 12:58:03;;;;;;;5.77;4.33;;;20.10;99.90;;;;;;4987830;28;20187;-88
2021/03/30 13:00:29;;;;;;;5.70;3.47;;;20.20;99.90;;;;;;4985773;28;20293;-89
2021/03/30 13:02:55;;;;;;;5.07;3.53;;;20.30;99.90;;;;;;4968132;28;20608;-88
2021/03/30 13:05:21;;;;;;;6.37;4.00;;;20.30;99.90;;;;;;4985829;28;20574;-88
2021/03/30 13:07:48;;;;;;;8.50;4.67;;;20.20;99.90;;;;;;4984963;28;20222;-89
2021/03/30 13:10:14;;;;;;;9.57;4.77;;;20.00;99.90;;;;;;4971171;28;20706;-89
2021/03/30 13:12:40;;;;;;;8.23;3.73;;;20.00;99.90;;;;;;4983664;28;20311;-89
2021/03/30 13:15:07;;;;;;;7.90;3.93;;;20.00;99.90;;;;;;4984749;28;20513;-90